Los Antiguos, Argentina
Current Conditions -  °F | °C
As of 2:00 PM on Thursday 18 Dec 2014 (Local Time) from SCAP Reporting Station
Clear Clear  
Wind Chill: 15°   Ceiling: Unl
Heat Index: 15°   Visibility: NA
Dew Point:   Wind: 20mph
Humidity: 51%   Direction: 210°SSW
Pressure: 29.83"   Gusts: 36mph
Location:  46.55°S, 71.62°W
Report Text: SCAP 181700Z AUTO 21017G31KT 170V260 //// // NSC 15/05 Q1010
Loading
Personal Weather Stations






























Interactive Weather Map New forecast layout! Learn more

10-Day Weather Forecast

Advertisements
Track Severe Weather on mobile